Time;durP1;ratioP1;P1;durP2;ratioP2;P2;SDS_P1;SDS_P2;PMS_P1;PMS_P2;Temp;Humidity;BMP_temperature;BMP_pressure;BME280_temperature;BME280_humidity;BME280_pressure;Samples;Min_cycle;Max_cycle;Signal;HPM_P1;HPM_P2
2023/12/05 00:01:10;;;;;;;70.70;33.80;;;;;;;-1.69;80.48;101584.92;124308;1102;103677;-75
2023/12/05 00:03:42;;;;;;;70.50;33.80;;;;;;;-1.68;79.70;101581.61;124290;1102;104188;-75
2023/12/05 00:06:13;;;;;;;77.23;38.27;;;;;;;-1.69;80.05;101581.45;124245;1102;104290;-75
2023/12/05 00:08:45;;;;;;;84.07;40.60;;;;;;;-1.70;80.59;101584.77;124229;1102;104156;-75
2023/12/05 00:11:16;;;;;;;75.97;38.43;;;;;;;-1.72;79.52;101591.44;124242;1102;104306;-75
2023/12/05 00:13:48;;;;;;;80.50;38.70;;;;;;;-1.73;80.06;101579.31;124310;1100;104185;-78
2023/12/05 00:16:20;;;;;;;69.00;35.43;;;;;;;-1.74;79.51;101568.12;124289;1102;104178;-75
2023/12/05 00:18:52;;;;;;;75.63;38.10;;;;;;;-1.73;79.65;101579.31;124233;1102;101878;-75
2023/12/05 00:21:24;;;;;;;78.37;38.90;;;;;;;-1.75;80.55;101570.53;124251;1102;104239;-75
2023/12/05 00:23:55;;;;;;;71.57;36.40;;;;;;;-1.77;80.47;101567.80;124282;1102;104169;-76
2023/12/05 00:26:27;;;;;;;69.57;35.63;;;;;;;-1.78;80.26;101572.80;124264;1102;104195;-75
2023/12/05 00:28:58;;;;;;;69.97;33.60;;;;;;;-1.81;79.70;101574.31;124301;1102;104212;-75
2023/12/05 00:31:30;;;;;;;70.67;34.20;;;;;;;-1.82;80.62;101580.20;124189;1102;102159;-75
2023/12/05 00:34:01;;;;;;;64.60;31.70;;;;;;;-1.84;80.47;101581.72;124281;1102;104182;-75
2023/12/05 00:36:32;;;;;;;67.20;33.87;;;;;;;-1.86;79.90;101580.62;124215;1102;104227;-75
2023/12/05 00:39:04;;;;;;;72.90;34.03;;;;;;;-1.87;80.12;101580.47;124288;1102;102014;-76
2023/12/05 00:41:35;;;;;;;66.83;33.60;;;;;;;-1.90;80.71;101578.52;124247;1102;101932;-75
2023/12/05 00:44:07;;;;;;;65.60;32.90;;;;;;;-1.91;79.89;101580.93;124243;1100;104082;-77
2023/12/05 00:46:38;;;;;;;62.73;32.13;;;;;;;-1.92;80.92;101576.53;124245;1102;102375;-75
2023/12/05 00:49:10;;;;;;;70.40;33.63;;;;;;;-1.93;80.31;101585.92;124230;1100;104192;-75
2023/12/05 00:51:41;;;;;;;63.53;32.23;;;;;;;-1.99;80.52;101570.75;124288;1102;104201;-77
2023/12/05 00:54:13;;;;;;;60.10;30.90;;;;;;;-2.01;80.69;101574.84;124255;1101;104172;-75
2023/12/05 00:56:44;;;;;;;65.03;32.20;;;;;;;-2.03;80.95;101577.99;124245;1102;104254;-75
2023/12/05 00:59:17;;;;;;;64.17;31.37;;;;;;;-2.08;80.30;101577.52;124313;1102;104166;-76
2023/12/05 01:01:48;;;;;;;69.30;34.30;;;;;;;-2.08;81.02;101568.91;124296;1102;104227;-76
2023/12/05 01:04:20;;;;;;;67.37;32.53;;;;;;;-2.10;81.12;101565.23;124302;1102;104232;-75
2023/12/05 01:06:51;;;;;;;66.20;33.27;;;;;;;-2.12;80.33;101564.19;124318;1102;104245;-75
2023/12/05 01:09:23;;;;;;;66.73;33.10;;;;;;;-2.16;80.66;101560.40;124278;1102;104165;-75
2023/12/05 01:11:54;;;;;;;69.60;33.90;;;;;;;-2.19;80.34;101567.80;124295;1102;104175;-75
2023/12/05 01:14:26;;;;;;;66.37;32.27;;;;;;;-2.21;80.15;101559.02;124280;1102;104351;-76
2023/12/05 01:16:57;;;;;;;67.23;33.77;;;;;;;-2.21;80.79;101556.45;124317;1102;104265;-76
2023/12/05 01:19:29;;;;;;;62.13;30.27;;;;;;;-2.24;80.32;101551.89;124287;1102;104239;-76
2023/12/05 01:22:02;;;;;;;66.33;31.30;;;;;;;-2.28;80.79;101549.73;124294;1102;104166;-75
2023/12/05 01:24:34;;;;;;;64.97;31.85;;;;;;;-2.30;80.27;101545.21;124325;1100;104166;-75
2023/12/05 01:27:06;;;;;;;66.57;32.43;;;;;;;-2.31;80.51;101541.70;124319;1102;104220;-76
2023/12/05 01:29:38;;;;;;;62.55;30.05;;;;;;;-2.33;80.27;101545.80;124302;1102;104274;-75
2023/12/05 01:32:09;;;;;;;64.83;31.93;;;;;;;-2.35;80.44;101532.78;124352;1102;101977;-75
2023/12/05 01:34:41;;;;;;;63.40;31.20;;;;;;;-2.35;81.46;101521.59;124297;1102;104211;-75
2023/12/05 01:37:13;;;;;;;63.27;30.83;;;;;;;-2.32;80.52;101526.13;124344;1102;101916;-75
2023/12/05 01:39:44;;;;;;;62.30;31.03;;;;;;;-2.35;80.33;101521.59;124233;1103;109465;-75
2023/12/05 01:42:15;;;;;;;59.90;29.90;;;;;;;-2.37;81.26;101508.59;124286;1102;104146;-76
2023/12/05 01:44:47;;;;;;;63.03;32.00;;;;;;;-2.37;80.29;101513.73;124262;1102;101954;-75
2023/12/05 01:47:20;;;;;;;60.50;29.43;;;;;;;-2.37;81.32;101512.80;124299;1102;104156;-76
2023/12/05 01:49:51;;;;;;;61.73;31.30;;;;;;;-2.38;81.35;101511.89;124211;1102;104316;-76
2023/12/05 01:52:23;;;;;;;61.50;30.23;;;;;;;-2.38;81.04;101509.33;124298;1102;104270;-76
2023/12/05 01:54:55;;;;;;;63.37;30.57;;;;;;;-2.37;80.90;101502.51;124301;1102;101922;-76
2023/12/05 01:57:27;;;;;;;63.33;31.83;;;;;;;-2.38;80.13;101506.75;124290;1102;104187;-75
2023/12/05 01:59:59;;;;;;;65.70;31.63;;;;;;;-2.41;81.23;101509.01;124225;1102;104057;-76
2023/12/05 02:02:30;;;;;;;61.93;30.03;;;;;;;-2.44;81.49;101513.83;124220;1102;104162;-75
2023/12/05 02:05:04;;;;;;;62.00;30.05;;;;;;;-2.48;81.37;101503.97;124356;1102;101933;-75
2023/12/05 02:07:35;;;;;;;66.35;31.65;;;;;;;-2.49;80.41;101499.60;124344;1102;101843;-75
2023/12/05 02:10:10;;;;;;;64.17;30.33;;;;;;;-2.49;80.31;101497.03;124266;1101;104389;-75
2023/12/05 02:12:41;;;;;;;62.47;30.67;;;;;;;-2.48;80.74;101492.79;124413;1102;101929;-75
2023/12/05 02:15:13;;;;;;;59.53;29.33;;;;;;;-2.48;81.46;101488.55;124280;1102;104246;-75
2023/12/05 02:17:54;;;;;;;61.67;30.17;;;;;;;-2.48;81.22;101479.94;124248;1102;104199;-75
2023/12/05 02:20:33;;;;;;;59.37;30.17;;;;;;;-2.49;81.41;101476.47;124239;1102;101858;-74
2023/12/05 02:23:47;;;;;;;57.03;27.90;;;;;;;-2.46;81.63;101475.86;124211;1102;104281;-74
2023/12/05 02:26:30;;;;;;;58.63;27.37;;;;;;;-2.44;81.13;101464.09;123970;1105;104226;-76
2023/12/05 02:29:02;;;;;;;60.00;28.80;;;;;;;-2.42;82.07;101470.29;124158;1102;104236;-76
2023/12/05 02:31:34;;;;;;;54.40;26.97;;;;;;;-2.40;80.92;101473.92;124261;1102;104204;-76
2023/12/05 02:34:05;;;;;;;59.77;28.17;;;;;;;-2.38;80.66;101480.15;124310;1102;104233;-75
2023/12/05 02:36:45;;;;;;;54.47;26.30;;;;;;;-2.36;81.06;101484.67;124350;1102;104722;-75
2023/12/05 02:39:26;;;;;;;53.57;26.47;;;;;;;-2.32;81.64;101483.35;124214;1102;101926;-75
2023/12/05 02:42:00;;;;;;;54.90;25.97;;;;;;;-2.30;81.98;101468.98;124282;1102;104198;-75
2023/12/05 02:44:37;;;;;;;54.27;25.47;;;;;;;-2.27;80.90;101466.72;124305;1102;103657;-75
2023/12/05 02:47:13;;;;;;;49.27;25.40;;;;;;;-2.26;82.08;101454.77;124300;1102;104269;-75
2023/12/05 02:49:44;;;;;;;51.95;24.30;;;;;;;-2.28;81.67;101446.89;124197;1102;104338;-76
2023/12/05 02:52:16;;;;;;;54.47;24.53;;;;;;;-2.29;81.65;101450.24;124229;1102;104287;-76
2023/12/05 02:54:47;;;;;;;52.47;24.90;;;;;;;-2.31;81.89;101441.44;124231;1102;104242;-76
2023/12/05 02:57:19;;;;;;;50.57;24.93;;;;;;;-2.32;81.08;101444.78;124275;1102;102207;-74
2023/12/05 02:59:50;;;;;;;53.00;23.80;;;;;;;-2.34;82.05;101443.70;124281;1102;102186;-74
2023/12/05 03:02:22;;;;;;;52.07;24.40;;;;;;;-2.35;81.38;101447.94;124320;1102;104172;-75
2023/12/05 03:04:53;;;;;;;48.67;22.57;;;;;;;-2.36;82.78;101442.64;124238;1102;104309;-74
2023/12/05 03:07:25;;;;;;;49.50;22.63;;;;;;;-2.40;81.61;101435.36;124268;1102;104188;-75
2023/12/05 03:09:56;;;;;;;51.57;22.60;;;;;;;-2.43;82.36;101435.05;124195;1102;104249;-75
2023/12/05 03:12:28;;;;;;;50.37;22.90;;;;;;;-2.46;81.90;101427.02;124185;1102;104214;-75
2023/12/05 03:15:00;;;;;;;46.20;21.53;;;;;;;-2.48;82.57;101434.58;124230;1101;104383;-75
2023/12/05 03:17:32;;;;;;;42.27;20.93;;;;;;;-2.50;82.46;101427.48;124236;1102;104277;-76
2023/12/05 03:20:04;;;;;;;44.33;21.90;;;;;;;-2.51;82.14;101426.55;124265;1101;103219;-75
2023/12/05 03:22:35;;;;;;;43.73;20.63;;;;;;;-2.53;82.46;101433.20;124379;1102;104216;-75
2023/12/05 03:25:09;;;;;;;45.33;21.03;;;;;;;-2.57;82.57;101429.42;124258;1102;101891;-75
2023/12/05 03:27:40;;;;;;;42.90;20.40;;;;;;;-2.58;82.35;101429.27;124326;1102;104172;-76
2023/12/05 03:30:14;;;;;;;43.27;20.07;;;;;;;-2.58;81.64;101429.27;124326;1102;104240;-75
2023/12/05 03:32:45;;;;;;;43.07;19.40;;;;;;;-2.58;82.34;101431.83;124335;1102;104189;-75
2023/12/05 03:35:17;;;;;;;41.47;17.60;;;;;;;-2.58;83.30;101434.41;124267;1102;102051;-74
2023/12/05 03:37:48;;;;;;;42.87;19.87;;;;;;;-2.58;83.04;101439.55;124331;1102;104261;-75
2023/12/05 03:40:20;;;;;;;44.23;20.20;;;;;;;-2.58;82.18;101432.73;124301;1100;101927;-75
2023/12/05 03:42:51;;;;;;;42.33;21.23;;;;;;;-2.57;82.66;101438.77;124253;1102;104284;-75
2023/12/05 03:45:23;;;;;;;47.20;21.60;;;;;;;-2.58;81.95;101437.87;124274;1102;104264;-76
2023/12/05 03:47:54;;;;;;;49.10;21.50;;;;;;;-2.56;82.75;101435.45;124251;1102;102476;-75
2023/12/05 03:50:26;;;;;;;45.17;20.50;;;;;;;-2.56;82.06;101436.36;124243;1102;104256;-76
2023/12/05 03:52:57;;;;;;;42.87;20.47;;;;;;;-2.56;82.68;101431.22;124293;1102;104239;-75
2023/12/05 03:55:29;;;;;;;41.67;19.50;;;;;;;-2.56;82.07;101436.36;124298;1102;104166;-74
2023/12/05 03:58:00;;;;;;;41.95;20.45;;;;;;;-2.55;82.66;101435.61;124324;1102;104159;-75
2023/12/05 04:00:31;;;;;;;42.07;19.90;;;;;;;-2.55;82.78;101440.75;124286;1102;104242;-75
2023/12/05 04:03:03;;;;;;;45.47;19.70;;;;;;;-2.54;82.11;101440.02;124373;1102;102207;-75
2023/12/05 04:05:35;;;;;;;42.63;19.90;;;;;;;-2.54;81.95;101434.88;124304;1102;104204;-75
2023/12/05 04:08:07;;;;;;;41.43;20.03;;;;;;;-2.54;82.09;101431.38;124254;1100;101907;-75
2023/12/05 04:10:38;;;;;;;43.93;19.90;;;;;;;-2.54;83.04;101421.09;124251;1102;102109;-75
2023/12/05 04:13:10;;;;;;;38.67;18.07;;;;;;;-2.52;82.06;101422.19;124286;1101;104204;-76
2023/12/05 04:15:41;;;;;;;40.70;18.87;;;;;;;-2.51;83.34;101430.79;124253;1102;104248;-74
2023/12/05 04:18:13;;;;;;;45.17;19.20;;;;;;;-2.51;82.96;101426.55;124290;1102;101966;-75
2023/12/05 04:20:44;;;;;;;43.33;19.40;;;;;;;-2.47;82.12;101427.80;124211;1102;103992;-74
2023/12/05 04:23:16;;;;;;;42.87;19.47;;;;;;;-2.45;82.45;101433.98;124290;1102;104204;-75
2023/12/05 04:25:48;;;;;;;44.20;20.33;;;;;;;-2.45;82.07;101428.85;124223;1102;104243;-75
2023/12/05 04:28:19;;;;;;;42.03;19.63;;;;;;;-2.43;83.08;101424.77;124267;1102;104169;-77
2023/12/05 04:30:51;;;;;;;40.63;18.70;;;;;;;-2.42;83.43;101400.89;124267;1102;104316;-74
2023/12/05 04:33:22;;;;;;;41.07;19.03;;;;;;;-2.44;82.40;101386.98;124325;1102;102888;-74
2023/12/05 04:35:54;;;;;;;45.83;18.37;;;;;;;-2.46;82.62;101373.05;124359;1102;104167;-74
2023/12/05 04:38:25;;;;;;;39.70;18.30;;;;;;;-2.48;83.56;101375.46;124327;1102;104197;-75
2023/12/05 04:40:56;;;;;;;43.63;20.13;;;;;;;-2.52;83.65;101368.21;124311;1102;104245;-75
2023/12/05 04:43:28;;;;;;;45.43;20.93;;;;;;;-2.54;82.60;101375.77;124309;1102;117795;-76
2023/12/05 04:45:59;;;;;;;39.03;17.90;;;;;;;-2.56;83.58;101361.83;124311;1102;102348;-75
2023/12/05 04:48:31;;;;;;;44.10;19.90;;;;;;;-2.57;84.43;101360.03;124374;1102;104166;-79
2023/12/05 04:51:03;;;;;;;38.13;18.27;;;;;;;-2.58;82.83;101359.88;124352;1102;104349;-74
2023/12/05 04:53:35;;;;;;;44.10;19.03;;;;;;;-2.59;83.21;101366.66;124283;1101;104364;-75
2023/12/05 04:56:08;;;;;;;42.57;19.33;;;;;;;-2.61;83.30;101363.03;124233;1102;104214;-75
2023/12/05 04:58:39;;;;;;;40.43;18.20;;;;;;;-2.63;83.31;101369.69;124315;1102;104352;-76
2023/12/05 05:01:11;;;;;;;43.47;19.47;;;;;;;-2.64;83.87;101362.72;124280;1102;104191;-74
2023/12/05 05:03:43;;;;;;;43.00;19.63;;;;;;;-2.66;84.03;101373.62;124296;1102;104251;-74
2023/12/05 05:06:15;;;;;;;43.53;18.43;;;;;;;-2.67;84.59;101366.65;124334;1102;101964;-74
2023/12/05 05:08:46;;;;;;;41.83;19.10;;;;;;;-2.69;83.37;101361.36;124330;1102;104214;-75
2023/12/05 05:11:18;;;;;;;43.13;19.57;;;;;;;-2.69;83.54;101363.03;124317;1102;104230;-75
2023/12/05 05:13:49;;;;;;;42.20;18.83;;;;;;;-2.70;83.71;101367.23;124265;1102;104169;-75
2023/12/05 05:16:20;;;;;;;40.00;17.70;;;;;;;-2.71;83.79;101363.77;124172;1102;104207;-76
2023/12/05 05:18:53;;;;;;;42.13;18.53;;;;;;;-2.68;83.08;101360.61;124336;1102;101802;-74
2023/12/05 05:21:24;;;;;;;38.10;17.63;;;;;;;-2.67;84.44;101367.55;124352;1102;104230;-75
2023/12/05 05:23:56;;;;;;;41.30;18.97;;;;;;;-2.66;84.03;101378.75;124284;1102;103194;-74
2023/12/05 05:26:30;;;;;;;43.53;19.60;;;;;;;-2.67;83.39;101370.11;124390;1102;104169;-74
2023/12/05 05:29:00;;;;;;;;;;;;;;;-2.67;83.62;101362.41;124347;1102;104531;-75
2023/12/05 05:31:31;;;;;;;42.07;18.57;;;;;;;-2.67;83.40;101367.55;124407;1102;104316;-75
2023/12/05 05:34:03;;;;;;;39.40;17.37;;;;;;;-2.66;83.96;101373.62;124493;1102;102524;-77
2023/12/05 05:36:35;;;;;;;40.07;17.80;;;;;;;-2.66;84.43;101363.34;124321;1102;104236;-75
2023/12/05 05:39:07;;;;;;;38.83;17.90;;;;;;;-2.65;84.81;101372.84;124352;1102;104165;-74
2023/12/05 05:41:38;;;;;;;38.13;17.73;;;;;;;-2.64;84.23;101357.58;124573;1102;104163;-77
2023/12/05 05:44:10;;;;;;;35.00;15.27;;;;;;;-2.61;84.43;101352.75;124476;1102;104836;-74
2023/12/05 05:46:44;;;;;;;44.10;19.10;;;;;;;-2.58;83.59;101357.31;124708;1102;104172;-78
2023/12/05 05:49:14;;;;;;;;;;;;;;;-2.57;84.75;101354.89;124700;1102;104186;-75
2023/12/05 05:51:45;;;;;;;35.50;16.67;;;;;;;-2.55;84.86;101357.62;124663;1102;104217;-76
2023/12/05 05:54:18;;;;;;;37.33;15.77;;;;;;;-2.53;84.42;101353.53;124724;1102;102638;-78
2023/12/05 05:56:50;;;;;;;37.00;15.95;;;;;;;-2.51;84.78;101357.16;124658;1102;104204;-79
2023/12/05 05:59:21;;;;;;;40.23;17.67;;;;;;;-2.47;84.59;101354.16;124658;1102;103718;-75
2023/12/05 06:01:53;;;;;;;40.33;18.30;;;;;;;-2.44;84.49;101356.14;124226;1102;101830;-74
2023/12/05 06:04:24;;;;;;;41.00;18.60;;;;;;;-2.40;83.50;101351.47;124510;1102;104185;-75
2023/12/05 06:06:56;;;;;;;42.67;19.43;;;;;;;-2.35;84.34;101351.93;124583;1102;104246;-75
2023/12/05 06:09:27;;;;;;;39.90;18.77;;;;;;;-2.31;84.60;101348.89;124545;1102;103557;-77
2023/12/05 06:11:59;;;;;;;40.73;17.40;;;;;;;-2.29;84.22;101354.19;124651;1102;104275;-75
2023/12/05 06:14:30;;;;;;;39.57;16.80;;;;;;;-2.24;84.67;101355.58;124225;1101;104258;-76
2023/12/05 06:17:02;;;;;;;40.03;19.03;;;;;;;-2.18;84.82;101351.95;124670;1101;104207;-79
2023/12/05 06:19:39;;;;;;;43.70;20.53;;;;;;;-2.10;83.97;101346.64;125036;1102;102007;-77
2023/12/05 06:22:11;;;;;;;43.80;20.73;;;;;;;-2.03;84.17;101339.69;125925;1102;104172;-75
2023/12/05 06:24:43;;;;;;;41.57;19.60;;;;;;;-1.95;84.81;101339.55;124763;1102;104268;-79
2023/12/05 06:27:14;;;;;;;48.13;22.50;;;;;;;-1.91;84.63;101321.10;125113;1102;104256;-81
2023/12/05 06:29:46;;;;;;;43.90;21.23;;;;;;;-1.86;84.26;101325.02;125438;1101;102164;-83
2023/12/05 06:32:19;;;;;;;48.83;21.70;;;;;;;-1.78;83.69;101326.67;126310;1100;104178;-78
2023/12/05 06:34:51;;;;;;;44.47;19.53;;;;;;;-1.69;84.04;101330.15;125351;1102;102120;-81
2023/12/05 06:37:25;;;;;;;44.90;20.63;;;;;;;-1.56;84.55;101333.92;125253;1102;102971;-77
2023/12/05 06:40:22;;;;;;;44.50;20.17;;;;;;;-1.50;84.45;101332.84;125472;1102;102224;-78
2023/12/05 06:46:22;;;;;;;41.77;19.00;;;;;;;-1.41;83.36;101325.11;125931;1102;110350;-79
2023/12/05 06:48:54;;;;;;;38.33;17.17;;;;;;;-1.36;83.56;101326.45;125605;1102;104140;-81
2023/12/05 06:51:26;;;;;;;48.15;20.95;;;;;;;-1.36;83.26;101328.13;124805;1102;104255;-75
2023/12/05 06:54:01;;;;;;;40.27;20.20;;;;;;;-1.35;84.26;101328.28;124623;1102;104252;-78
2023/12/05 06:56:32;;;;;;;41.17;18.93;;;;;;;-1.33;83.81;101333.58;124901;1102;102008;-79
2023/12/05 06:59:06;;;;;;;40.17;19.27;;;;;;;-1.32;84.03;101320.84;125395;1101;104166;-77
2023/12/05 07:01:43;;;;;;;41.10;18.47;;;;;;;-1.27;83.24;101318.72;124766;1101;104227;-80
2023/12/05 07:04:18;;;;;;;42.20;19.43;;;;;;;-1.21;84.29;101321.87;124572;1102;104172;-76
2023/12/05 07:06:52;;;;;;;42.33;18.67;;;;;;;-1.16;84.30;101318.06;124924;1102;107628;-78
2023/12/05 07:09:28;;;;;;;42.13;19.57;;;;;;;-1.12;83.67;101315.03;124693;1102;104356;-78
2023/12/05 07:12:03;;;;;;;45.50;19.30;;;;;;;-1.06;84.42;101316.36;125158;1102;104639;-75
2023/12/05 07:14:41;;;;;;;43.23;19.37;;;;;;;-1.01;83.22;101317.70;124393;1102;101888;-74
2023/12/05 07:17:20;;;;;;;;;;;;;;;-0.97;83.95;101309.51;125297;1102;101994;-77
2023/12/05 07:19:51;;;;;;;46.65;19.55;;;;;;;-0.93;83.70;101306.47;124716;1102;104706;-77
2023/12/05 07:25:36;;;;;;;45.07;20.50;;;;;;;-0.82;83.89;101297.17;125502;1101;101909;-80
2023/12/05 07:28:11;;;;;;;46.40;21.00;;;;;;;-0.78;84.27;101297.61;125459;1102;103917;-81
2023/12/05 07:30:46;;;;;;;42.07;20.10;;;;;;;-0.75;83.96;101303.05;126996;1101;101864;-78
2023/12/05 07:33:20;;;;;;;40.73;19.93;;;;;;;-0.69;83.90;101306.95;124682;1102;101899;-78
2023/12/05 07:35:54;;;;;;;42.87;20.83;;;;;;;-0.64;83.95;101313.44;124954;1102;104290;-78
2023/12/05 07:38:26;;;;;;;47.08;20.35;;;;;;;-0.59;84.49;101319.95;125286;1102;104239;-78
2023/12/05 07:40:58;;;;;;;41.27;19.10;;;;;;;-0.55;84.66;101309.13;125349;1101;101952;-77
2023/12/05 07:43:30;;;;;;;41.63;19.17;;;;;;;-0.49;84.53;101309.70;124517;1102;102406;-77
2023/12/05 07:46:07;;;;;;;39.27;18.55;;;;;;;-0.43;84.30;101299.95;124628;1101;102019;-76
2023/12/05 07:48:53;;;;;;;38.60;18.37;;;;;;;-0.39;84.83;101302.06;124672;1102;104182;-78
2023/12/05 07:51:25;;;;;;;40.50;19.13;;;;;;;-0.32;84.84;101297.48;126597;1101;101837;-77
2023/12/05 07:53:58;;;;;;;35.93;17.77;;;;;;;-0.26;85.21;101303.20;125809;1101;101906;-76
2023/12/05 07:56:29;;;;;;;41.40;18.67;;;;;;;-0.21;84.74;101292.52;124752;1102;104337;-78
2023/12/05 07:59:01;;;;;;;40.47;17.47;;;;;;;-0.16;84.87;101294.62;125875;1101;101967;-80
2023/12/05 08:01:42;;;;;;;40.37;18.77;;;;;;;-0.13;84.65;101280.31;124744;1102;101824;-76
2023/12/05 08:04:19;;;;;;;40.97;18.40;;;;;;;-0.10;84.71;101259.05;124651;1102;104271;-78
2023/12/05 08:06:52;;;;;;;42.60;19.07;;;;;;;-0.07;84.81;101252.48;124661;1102;104214;-77
2023/12/05 08:09:27;;;;;;;40.70;18.60;;;;;;;-0.02;85.20;101258.06;124748;1102;104239;-77
2023/12/05 08:12:13;;;;;;;44.00;20.57;;;;;;;-0.01;85.07;101237.56;126103;1101;101788;-77
2023/12/05 08:14:58;;;;;;;43.07;19.23;;;;;;;0.04;85.03;101231.91;126098;1102;101807;-75
2023/12/05 08:17:34;;;;;;;42.07;18.57;;;;;;;0.06;85.19;101215.78;124770;1102;104245;-74
2023/12/05 08:20:31;;;;;;;41.17;18.20;;;;;;;0.11;85.30;101229.09;124355;1099;104242;-73
2023/12/05 08:23:26;;;;;;;45.60;19.17;;;;;;;0.13;85.75;101235.31;124387;1099;104171;-76
2023/12/05 08:26:06;;;;;;;44.77;19.43;;;;;;;0.15;85.23;101238.93;124471;1102;104228;-77
2023/12/05 08:28:38;;;;;;;47.77;20.60;;;;;;;0.15;85.53;101241.52;124557;1102;103656;-73
2023/12/05 08:31:23;;;;;;;42.60;19.50;;;;;;;0.19;85.46;101243.61;124484;1102;102067;-75
2023/12/05 08:33:58;;;;;;;42.93;20.40;;;;;;;0.23;85.40;101239.61;124375;1102;104172;-77
2023/12/05 08:36:33;;;;;;;43.70;19.05;;;;;;;0.26;85.11;101251.11;124491;1102;104239;-74
2023/12/05 08:39:08;;;;;;;42.77;18.60;;;;;;;0.32;85.43;101259.39;124741;1099;104077;-75
2023/12/05 08:41:50;;;;;;;;;;;;;;;0.37;85.56;101254.64;125618;1099;101793;-75
2023/12/05 08:44:42;;;;;;;40.87;19.93;;;;;;;0.45;85.66;101232.08;125882;1098;104238;-75
2023/12/05 08:47:14;;;;;;;41.07;18.50;;;;;;;0.56;85.43;101231.33;125318;1102;104174;-73
2023/12/05 08:49:58;;;;;;;39.23;18.37;;;;;;;0.65;85.70;101216.63;125709;1098;102042;-73
2023/12/05 08:53:12;;;;;;;36.10;16.90;;;;;;;0.75;85.32;101196.77;124902;1099;104275;-79
2023/12/05 08:56:00;;;;;;;34.33;16.17;;;;;;;0.83;85.34;101190.60;125322;1099;102238;-79
2023/12/05 08:58:32;;;;;;;29.70;14.10;;;;;;;0.93;85.60;101194.86;125249;1102;103332;-75
2023/12/05 09:01:13;;;;;;;28.97;12.93;;;;;;;0.99;85.94;101190.22;116385;1102;10001806;-76
2023/12/05 09:07:47;;;;;;;34.70;14.57;;;;;;;1.11;85.21;101192.91;125754;1099;102108;-76
2023/12/05 09:10:31;;;;;;;30.57;14.03;;;;;;;1.14;85.48;101196.69;124732;1099;104242;-76
2023/12/05 09:13:04;;;;;;;29.53;13.60;;;;;;;1.17;85.81;101196.02;125126;1099;118475;-78
2023/12/05 09:15:43;;;;;;;33.30;13.95;;;;;;;1.19;85.18;101191.91;124985;1102;102353;-76
2023/12/05 09:18:17;;;;;;;29.40;14.10;;;;;;;1.23;85.70;101193.95;124999;1102;104198;-78
2023/12/05 09:20:57;;;;;;;32.00;13.80;;;;;;;1.24;85.61;101193.19;124653;1099;104166;-72
2023/12/05 09:26:47;;;;;;;29.53;13.60;;;;;;;1.37;85.62;101170.17;125174;1102;104322;-75
2023/12/05 09:29:29;;;;;;;30.20;13.10;;;;;;;1.44;85.89;101156.95;124429;1102;104372;-76
2023/12/05 09:32:03;;;;;;;27.63;12.80;;;;;;;1.55;85.35;101160.43;124297;1102;104223;-74
2023/12/05 09:34:59;;;;;;;28.17;12.97;;;;;;;1.61;85.40;101152.28;126125;1100;104185;-76
2023/12/05 09:37:37;;;;;;;30.05;13.05;;;;;;;1.64;84.78;101143.84;126490;1098;104169;-75
2023/12/05 09:40:34;;;;;;;27.77;12.47;;;;;;;1.67;85.04;101129.50;125841;1098;101948;-74
2023/12/05 09:43:44;;;;;;;26.93;12.63;;;;;;;1.70;84.83;101121.05;124523;1102;104257;-75
2023/12/05 09:46:28;;;;;;;31.47;13.37;;;;;;;1.72;84.65;101124.70;124795;1102;101976;-76
2023/12/05 09:49:14;;;;;;;24.67;11.73;;;;;;;1.82;84.66;101124.64;125637;1100;104172;-78
2023/12/05 09:52:02;;;;;;;31.63;13.10;;;;;;;1.89;84.42;101115.70;124251;1099;104207;-76
2023/12/05 09:54:43;;;;;;;26.90;11.53;;;;;;;2.04;84.63;101098.81;124207;1102;104220;-77
2023/12/05 09:57:41;;;;;;;;;;;;;;;;;;;;;
2023/12/05 10:00:28;;;;;;;27.17;11.68;;;;;;;2.34;84.87;101094.23;125258;1102;104201;-77
2023/12/05 10:03:15;;;;;;;25.47;12.00;;;;;;;2.48;84.45;101088.43;124563;1102;104265;-77
2023/12/05 10:06:05;;;;;;;27.50;12.47;;;;;;;2.61;84.27;101094.56;124414;1100;104194;-76
2023/12/05 10:08:47;;;;;;;26.07;11.55;;;;;;;2.72;84.52;101088.50;125862;1099;101909;-78
2023/12/05 10:11:30;;;;;;;25.83;11.27;;;;;;;2.83;84.14;101091.92;127002;1101;101831;-78
2023/12/05 10:14:03;;;;;;;26.27;10.87;;;;;;;2.93;84.08;101085.73;125881;1099;104108;-75
2023/12/05 10:16:36;;;;;;;26.50;11.97;;;;;;;2.99;84.61;101081.01;124710;1099;104325;-78
2023/12/05 10:19:14;;;;;;;25.67;11.00;;;;;;;3.08;84.19;101081.70;126221;1098;101794;-77
2023/12/05 10:22:05;;;;;;;23.40;10.80;;;;;;;3.13;83.74;101077.78;127342;1098;101909;-77
2023/12/05 10:24:55;;;;;;;22.67;10.33;;;;;;;3.17;82.68;101073.72;125189;1099;106825;-78
2023/12/05 10:28:16;;;;;;;;;;;;;;;;;;;;;
2023/12/05 10:31:18;;;;;;;23.43;10.17;;;;;;;3.19;82.83;101062.65;124570;1102;104159;-74
2023/12/05 10:34:08;;;;;;;23.07;7.80;;;;;;;3.27;82.32;101055.44;124909;1099;102070;-76
2023/12/05 10:37:06;;;;;;;21.73;8.73;;;;;;;3.26;81.05;101043.28;125643;1102;117797;-75
2023/12/05 10:40:06;;;;;;;;;;;;;;;3.29;81.42;101037.39;124930;1099;101880;-74
2023/12/05 10:42:45;;;;;;;21.93;8.93;;;;;;;3.31;81.65;101028.95;125041;1099;104163;-77
2023/12/05 10:45:29;;;;;;;21.57;9.20;;;;;;;3.30;80.80;101019.34;125595;1099;101827;-74
2023/12/05 10:48:41;;;;;;;25.10;10.37;;;;;;;3.33;82.13;101009.20;124992;1099;104191;-74
2023/12/05 10:52:03;;;;;;;21.80;9.53;;;;;;;3.36;81.54;101001.63;125429;1099;104222;-75
2023/12/05 10:55:09;;;;;;;19.97;8.20;;;;;;;3.40;81.37;101007.97;125453;1099;104239;-74
2023/12/05 10:58:14;;;;;;;19.63;9.00;;;;;;;3.40;80.51;101010.56;126544;1098;102289;-76
2023/12/05 11:01:05;;;;;;;22.07;9.47;;;;;;;3.41;80.13;100989.92;126043;1098;101665;-75
2023/12/05 11:03:39;;;;;;;19.40;8.80;;;;;;;3.44;81.76;100997.00;126116;1098;101786;-75
2023/12/05 11:06:18;;;;;;;21.53;9.00;;;;;;;3.44;80.56;100986.63;126295;1098;102065;-75
2023/12/05 11:09:06;;;;;;;21.50;8.60;;;;;;;3.47;81.35;100991.14;124683;1099;102165;-75
2023/12/05 11:12:17;;;;;;;21.33;9.20;;;;;;;3.44;79.66;101001.30;124846;1099;103391;-73
2023/12/05 11:14:56;;;;;;;21.07;9.10;;;;;;;3.42;80.52;100988.22;125365;1099;101942;-74
2023/12/05 11:17:37;;;;;;;20.67;8.43;;;;;;;3.39;80.62;100995.78;125893;1099;104156;-73
2023/12/05 11:20:30;;;;;;;21.87;9.13;;;;;;;3.37;81.75;100990.48;124935;1099;118601;-72
2023/12/05 11:23:23;;;;;;;20.67;9.43;;;;;;;3.38;80.76;100989.70;124947;1099;104098;-72
2023/12/05 11:26:25;;;;;;;20.37;8.80;;;;;;;3.40;81.25;100989.81;125211;1099;104169;-73
2023/12/05 11:29:10;;;;;;;20.33;9.10;;;;;;;3.35;81.33;100983.36;125038;1098;101988;-76
2023/12/05 11:32:02;;;;;;;19.27;8.07;;;;;;;3.32;80.34;100980.55;125456;1099;101977;-76
2023/12/05 11:35:12;;;;;;;21.00;9.67;;;;;;;3.32;80.97;100972.77;125115;1099;102332;-75
2023/12/05 11:38:09;;;;;;;24.93;9.00;;;;;;;3.35;81.79;100970.39;126783;1099;104111;-84
2023/12/05 11:41:18;;;;;;;21.43;9.00;;;;;;;3.36;81.00;100978.29;126846;1098;101730;-80
2023/12/05 11:44:47;;;;;;;21.83;9.17;;;;;;;3.31;81.17;100956.31;127079;1099;102003;-78
2023/12/05 11:47:29;;;;;;;20.17;9.10;;;;;;;3.40;80.62;100954.38;125740;1099;102118;-78
2023/12/05 11:50:09;;;;;;;21.27;8.70;;;;;;;3.47;80.96;100955.71;127130;1098;101953;-80
2023/12/05 11:56:22;;;;;;;20.63;8.53;;;;;;;3.49;81.04;100950.63;127517;1098;101746;-77
2023/12/05 12:03:19;;;;;;;21.27;8.47;;;;;;;3.49;81.24;100953.22;125996;1099;104160;-78
2023/12/05 12:06:01;;;;;;;18.50;8.23;;;;;;;3.50;80.45;100962.83;126294;1099;101907;-76
2023/12/05 12:08:37;;;;;;;20.63;8.10;;;;;;;3.49;80.33;100948.95;126321;1099;101885;-77